createdAt,value
2019-05-06T06:41:32.405Z,10
2019-05-06T06:44:33.111Z,10
2019-05-06T07:13:54.288Z,10
2019-05-06T07:16:54.309Z,10
2019-05-06T07:31:23.867Z,11
2019-05-06T07:34:19.238Z,11
2019-05-06T07:37:19.383Z,12
2019-05-06T07:40:19.480Z,12
2019-05-06T07:43:21.902Z,12
2019-05-06T07:46:19.447Z,12
2019-05-06T07:49:19.508Z,13
2019-05-06T07:52:19.556Z,13
2019-05-06T07:55:19.613Z,14
2019-05-06T07:58:19.681Z,14
2019-05-06T08:01:21.585Z,14
2019-05-06T08:04:19.795Z,14
2019-05-06T08:07:22.151Z,14
2019-05-06T08:10:21.961Z,14
2019-05-06T08:13:19.953Z,15
2019-05-06T08:16:20.014Z,14
2019-05-06T08:19:20.078Z,14
2019-05-06T08:22:22.563Z,14
2019-05-06T08:25:22.773Z,13
2019-05-06T08:28:22.400Z,13
2019-05-06T08:31:22.380Z,13
2019-05-06T08:34:22.483Z,13
2019-05-06T08:37:22.662Z,13
2019-05-06T08:40:22.633Z,13
2019-05-06T08:43:21.946Z,12
2019-05-06T08:46:23.247Z,12
2019-05-06T08:49:22.423Z,12
2019-05-06T08:52:21.728Z,12
2019-05-06T08:55:22.058Z,12
2019-05-06T08:58:22.136Z,12
2019-05-06T09:01:22.369Z,12
2019-05-06T09:04:22.787Z,12
2019-05-06T09:07:20.947Z,12
2019-05-06T09:10:22.716Z,12
2019-05-06T09:13:23.183Z,13
2019-05-06T09:16:22.325Z,13
2019-05-06T09:19:23.370Z,13
2019-05-06T09:22:23.517Z,14
2019-05-06T09:25:23.147Z,14
2019-05-06T09:28:23.381Z,15
2019-05-06T09:31:22.992Z,15
2019-05-06T09:34:23.382Z,15
2019-05-06T09:37:23.946Z,15
2019-05-06T09:40:22.767Z,16
2019-05-06T09:43:22.258Z,18
2019-05-06T09:46:23.091Z,20
2019-05-06T09:49:22.895Z,20
2019-05-06T09:52:23.211Z,19
2019-05-06T09:55:22.209Z,19
2019-05-06T09:58:22.875Z,21
2019-05-06T10:01:22.557Z,24
2019-05-06T10:04:22.514Z,25
2019-05-06T10:07:22.701Z,24
2019-05-06T10:10:22.409Z,23
2019-05-06T10:13:22.728Z,23
2019-05-06T10:16:22.370Z,25
2019-05-06T10:19:22.784Z,27
2019-05-06T10:22:23.346Z,28
2019-05-06T10:25:22.716Z,30
2019-05-06T10:28:23.383Z,30
2019-05-06T10:31:22.901Z,28
2019-05-06T10:34:22.851Z,28
2019-05-06T10:37:22.944Z,30
2019-05-06T10:40:23.069Z,31
2019-05-06T10:43:23.139Z,32
2019-05-06T10:46:23.243Z,35
2019-05-06T10:49:23.338Z,36
2019-05-06T10:52:23.401Z,35
2019-05-06T10:55:23.472Z,32
2019-05-06T10:58:23.538Z,28
2019-05-06T11:01:23.663Z,25
2019-05-06T11:04:24.083Z,23
2019-05-06T11:07:31.347Z,21
2019-05-06T11:10:29.506Z,20
2019-05-06T11:13:24.608Z,18
2019-05-06T11:16:24.040Z,17
2019-05-06T11:19:23.971Z,16
2019-05-06T11:22:24.818Z,16
2019-05-06T11:25:24.107Z,16
2019-05-06T11:28:24.164Z,16
2019-05-06T11:31:24.257Z,16
2019-05-06T11:37:24.372Z,18
2019-05-06T11:40:24.442Z,19
2019-05-06T11:43:24.597Z,18
2019-05-06T11:46:24.568Z,18
2019-05-06T11:49:24.622Z,17
2019-05-06T11:52:24.690Z,17
2019-05-06T11:55:31.216Z,17
2019-05-06T11:58:24.961Z,16
2019-05-06T12:01:24.855Z,16
2019-05-06T12:04:24.913Z,16
2019-05-06T12:07:25.027Z,16
2019-05-06T12:10:25.040Z,15
2019-05-06T12:13:25.103Z,15
2019-05-06T12:16:26.345Z,15
2019-05-06T12:19:25.206Z,15
2019-05-06T12:22:25.426Z,15
2019-05-06T12:25:25.393Z,15
2019-05-06T12:28:25.399Z,16
2019-05-06T12:31:25.489Z,16
2019-05-06T12:34:25.505Z,16
2019-05-06T12:37:25.711Z,16
2019-05-06T12:40:25.647Z,16
2019-05-06T12:43:25.700Z,17
2019-05-06T12:46:25.785Z,18
2019-05-06T12:49:25.827Z,18
2019-05-06T12:52:25.896Z,20
2019-05-06T12:55:25.966Z,21
2019-05-06T12:58:26.046Z,22
2019-05-06T13:01:26.150Z,22
2019-05-06T13:04:48.474Z,22
2019-05-06T13:07:26.271Z,23
2019-05-06T13:10:26.348Z,24
2019-05-06T13:13:26.694Z,26
2019-05-06T13:16:26.558Z,29
2019-05-06T13:19:26.628Z,30
2019-05-06T13:22:26.693Z,28
2019-05-06T13:25:26.876Z,25
2019-05-06T13:28:26.834Z,22
2019-05-06T13:31:26.911Z,21
2019-05-06T13:34:27.028Z,20
2019-05-06T13:37:27.302Z,19
2019-05-06T13:40:27.357Z,18
2019-05-06T13:43:27.248Z,17
2019-05-06T13:49:27.380Z,16
2019-05-06T13:52:27.369Z,16
2019-05-06T13:55:27.389Z,17
2019-05-06T13:58:27.592Z,17
2019-05-06T14:01:27.504Z,17
2019-05-06T14:04:27.621Z,18
2019-05-06T14:07:28.071Z,20
2019-05-06T14:10:27.733Z,23
2019-05-06T14:13:27.820Z,25
2019-05-06T14:16:27.891Z,26
2019-05-06T14:19:27.963Z,27
2019-05-06T14:22:28.136Z,28
2019-05-06T14:25:28.120Z,26
2019-05-06T14:28:28.156Z,24
2019-05-06T14:31:28.334Z,22
2019-05-06T14:34:28.319Z,21
2019-05-06T14:37:28.352Z,20
2019-05-06T14:40:28.404Z,20
2019-05-06T14:43:28.474Z,19
2019-05-06T14:46:28.574Z,19
2019-05-06T14:49:28.608Z,18
2019-05-06T14:52:28.648Z,17
2019-05-06T14:55:29.140Z,17
2019-05-06T14:58:28.779Z,16
2019-05-06T15:01:28.828Z,16
2019-05-06T15:04:28.903Z,16
2019-05-06T15:07:29.057Z,16
2019-05-06T15:10:29.055Z,16
2019-05-06T15:13:29.103Z,16
2019-05-06T15:16:29.132Z,16
2019-05-06T15:19:29.207Z,16
2019-05-06T15:22:29.247Z,16
2019-05-06T15:25:29.312Z,16
2019-05-06T15:28:29.370Z,16
2019-05-06T15:31:29.419Z,16
2019-05-06T15:34:29.539Z,16
2019-05-06T15:37:29.647Z,16
2019-05-06T15:40:33.808Z,16
2019-05-06T15:43:29.682Z,16
2019-05-06T15:46:29.736Z,16
2019-05-06T15:49:31.948Z,16
2019-05-06T15:52:29.843Z,16
2019-05-06T15:55:32.149Z,16
2019-05-06T15:58:32.243Z,16
2019-05-06T16:01:33.195Z,16
2019-05-06T16:04:31.921Z,16
2019-05-06T16:07:34.225Z,16
2019-05-06T16:10:30.229Z,16
2019-05-06T16:13:30.280Z,16
2019-05-06T16:16:32.704Z,16
2019-05-06T16:19:30.416Z,16
2019-05-06T16:22:30.478Z,16
2019-05-06T16:25:30.516Z,16
2019-05-06T16:28:30.595Z,16
2019-05-06T16:31:32.984Z,16
2019-05-06T16:34:32.375Z,15
2019-05-06T17:43:36.417Z,13
2019-05-06T17:46:33.335Z,13
2019-05-06T18:10:33.573Z,12
2019-05-06T18:13:32.484Z,12
2019-05-06T18:16:33.457Z,12
2019-05-06T18:19:33.593Z,12
2019-05-06T18:22:33.075Z,12
2019-05-06T18:25:33.011Z,12
2019-05-06T18:28:32.875Z,12
2019-05-06T18:31:33.560Z,12
2019-05-06T18:34:33.223Z,12
2019-05-06T18:37:33.336Z,12
2019-05-06T18:40:33.232Z,12
2019-05-06T18:43:33.573Z,11
2019-05-06T18:46:33.051Z,11
2019-05-06T18:49:33.986Z,11
2019-05-06T18:52:33.139Z,11
2019-05-06T18:55:33.375Z,11
2019-05-06T18:58:33.271Z,11
2019-05-06T19:01:33.397Z,11
2019-05-06T19:04:33.597Z,11
2019-05-06T19:07:33.498Z,11
2019-05-06T19:10:33.479Z,11
2019-05-06T19:13:33.639Z,11
2019-05-06T19:16:48.294Z,11
2019-05-06T19:19:34.947Z,11
2019-05-06T19:22:33.756Z,11
2019-05-06T19:25:34.772Z,11
2019-05-06T19:28:33.756Z,11
2019-05-06T19:31:33.822Z,11
2019-05-06T19:34:35.285Z,11
2019-05-06T19:37:34.121Z,11
2019-05-06T19:40:33.957Z,10
2019-05-06T19:43:34.435Z,10
2019-05-06T19:46:34.059Z,10
2019-05-06T19:49:34.220Z,10
2019-05-06T19:52:34.157Z,10
2019-05-06T19:55:34.229Z,10
2019-05-06T19:58:34.257Z,10
2019-05-06T20:01:34.329Z,10
2019-05-06T20:04:34.351Z,10
2019-05-06T20:07:34.411Z,10
2019-05-06T20:10:34.463Z,10
2019-05-06T20:13:34.517Z,10
2019-05-06T20:16:34.541Z,10
2019-05-06T20:19:34.617Z,10
2019-05-06T20:22:34.646Z,10
2019-05-06T20:25:36.969Z,10
2019-05-06T20:31:34.800Z,10
2019-05-06T20:34:34.879Z,10
2019-05-06T20:37:34.913Z,10
2019-05-06T20:43:35.022Z,10
2019-05-06T20:46:35.053Z,10
2019-05-06T20:49:35.099Z,10
2019-05-06T20:52:35.146Z,10
2019-05-06T20:55:35.828Z,10
2019-05-06T20:58:35.282Z,10
2019-05-06T21:01:35.306Z,10
2019-05-06T21:04:35.349Z,10
2019-05-06T21:07:35.411Z,10
2019-05-06T21:10:35.462Z,10
2019-05-06T21:13:35.746Z,10
2019-05-06T21:16:35.592Z,10
2019-05-06T21:19:35.646Z,10
2019-05-06T21:22:35.639Z,10
2019-05-06T21:25:35.858Z,10
2019-05-06T21:28:35.759Z,10
2019-05-06T21:31:35.813Z,10
2019-05-06T21:34:35.993Z,10
2019-05-06T21:37:36.042Z,10
2019-05-06T21:40:36.108Z,10
2019-05-06T21:46:36.053Z,9
2019-05-06T21:49:36.070Z,9
2019-05-06T21:52:39.755Z,9
2019-05-06T21:55:36.173Z,9
2019-05-06T21:58:36.385Z,9
2019-05-06T22:01:36.291Z,9
2019-05-06T22:04:36.762Z,9
2019-05-06T22:07:36.366Z,9
2019-05-06T22:10:36.482Z,9
2019-05-06T22:13:36.596Z,9
2019-05-06T22:16:36.517Z,9
